sensor_id;sensor_type;location;lat;lon;timestamp;temperature;humidity
21473;DHT22;10898;48.072;11.682;2023-06-10T00:01:33;16.50;99.90
21473;DHT22;10898;48.072;11.682;2023-06-10T00:03:38;16.50;99.90
21473;DHT22;10898;48.072;11.682;2023-06-10T00:05:41;16.50;99.90
21473;DHT22;10898;48.072;11.682;2023-06-10T00:07:42;16.40;99.90
21473;DHT22;10898;48.072;11.682;2023-06-10T00:09:44;16.40;99.90
21473;DHT22;10898;48.072;11.682;2023-06-10T00:11:46;16.40;99.90
21473;DHT22;10898;48.072;11.682;2023-06-10T00:13:48;16.30;99.90
21473;DHT22;10898;48.072;11.682;2023-06-10T00:15:50;16.30;99.90
21473;DHT22;10898;48.072;11.682;2023-06-10T00:17:52;16.30;99.90
21473;DHT22;10898;48.072;11.682;2023-06-10T00:19:56;16.30;99.90
21473;DHT22;10898;48.072;11.682;2023-06-10T00:21:59;16.20;99.90
21473;DHT22;10898;48.072;11.682;2023-06-10T00:24:00;16.20;99.90
21473;DHT22;10898;48.072;11.682;2023-06-10T00:26:04;16.20;99.90
21473;DHT22;10898;48.072;11.682;2023-06-10T00:28:06;16.20;99.90
21473;DHT22;10898;48.072;11.682;2023-06-10T00:30:08;16.10;99.90
21473;DHT22;10898;48.072;11.682;2023-06-10T00:32:10;16.10;99.90
21473;DHT22;10898;48.072;11.682;2023-06-10T00:34:12;16.00;99.90
21473;DHT22;10898;48.072;11.682;2023-06-10T00:36:13;16.00;99.90
21473;DHT22;10898;48.072;11.682;2023-06-10T00:38:15;16.00;99.90
21473;DHT22;10898;48.072;11.682;2023-06-10T00:40:17;16.00;99.90
21473;DHT22;10898;48.072;11.682;2023-06-10T00:42:19;15.90;99.90
21473;DHT22;10898;48.072;11.682;2023-06-10T00:44:21;15.90;99.90
21473;DHT22;10898;48.072;11.682;2023-06-10T00:46:23;15.90;99.90
21473;DHT22;10898;48.072;11.682;2023-06-10T00:48:25;15.80;99.90
21473;DHT22;10898;48.072;11.682;2023-06-10T00:50:27;15.90;99.90
21473;DHT22;10898;48.072;11.682;2023-06-10T00:52:29;15.80;99.90
21473;DHT22;10898;48.072;11.682;2023-06-10T00:54:31;15.80;99.90
21473;DHT22;10898;48.072;11.682;2023-06-10T00:56:34;15.80;99.90
21473;DHT22;10898;48.072;11.682;2023-06-10T00:58:36;15.80;99.90
21473;DHT22;10898;48.072;11.682;2023-06-10T01:00:38;15.70;99.90
21473;DHT22;10898;48.072;11.682;2023-06-10T01:02:40;15.70;99.90
21473;DHT22;10898;48.072;11.682;2023-06-10T01:04:42;15.70;99.90
21473;DHT22;10898;48.072;11.682;2023-06-10T01:06:51;15.70;99.90
21473;DHT22;10898;48.072;11.682;2023-06-10T01:08:57;15.60;99.90
21473;DHT22;10898;48.072;11.682;2023-06-10T01:11:03;15.60;99.90
21473;DHT22;10898;48.072;11.682;2023-06-10T01:13:08;15.60;99.90
21473;DHT22;10898;48.072;11.682;2023-06-10T01:15:13;15.50;99.90
21473;DHT22;10898;48.072;11.682;2023-06-10T01:17:15;15.50;99.90
21473;DHT22;10898;48.072;11.682;2023-06-10T01:19:18;15.50;99.90
21473;DHT22;10898;48.072;11.682;2023-06-10T01:21:21;15.50;99.90
21473;DHT22;10898;48.072;11.682;2023-06-10T01:23:25;15.40;99.90
21473;DHT22;10898;48.072;11.682;2023-06-10T01:25:29;15.40;99.90
21473;DHT22;10898;48.072;11.682;2023-06-10T01:27:32;15.40;99.90
21473;DHT22;10898;48.072;11.682;2023-06-10T01:29:40;15.40;99.90
21473;DHT22;10898;48.072;11.682;2023-06-10T01:34:16;15.30;99.90
21473;DHT22;10898;48.072;11.682;2023-06-10T01:36:18;15.30;99.90
21473;DHT22;10898;48.072;11.682;2023-06-10T01:38:20;15.30;99.90
21473;DHT22;10898;48.072;11.682;2023-06-10T01:40:23;15.30;99.90
21473;DHT22;10898;48.072;11.682;2023-06-10T01:42:25;15.20;99.90
21473;DHT22;10898;48.072;11.682;2023-06-10T01:44:27;15.20;99.90
21473;DHT22;10898;48.072;11.682;2023-06-10T01:46:29;15.10;99.90
21473;DHT22;10898;48.072;11.682;2023-06-10T01:48:31;15.10;99.90
21473;DHT22;10898;48.072;11.682;2023-06-10T01:50:33;15.10;99.90
21473;DHT22;10898;48.072;11.682;2023-06-10T01:52:35;15.10;99.90
21473;DHT22;10898;48.072;11.682;2023-06-10T01:54:36;15.10;99.90
21473;DHT22;10898;48.072;11.682;2023-06-10T01:56:38;15.10;99.90
21473;DHT22;10898;48.072;11.682;2023-06-10T01:58:40;15.00;99.90
21473;DHT22;10898;48.072;11.682;2023-06-10T02:00:42;15.00;99.90
21473;DHT22;10898;48.072;11.682;2023-06-10T02:02:43;15.00;99.90
21473;DHT22;10898;48.072;11.682;2023-06-10T02:04:45;15.00;99.90
21473;DHT22;10898;48.072;11.682;2023-06-10T02:06:47;14.90;99.90
21473;DHT22;10898;48.072;11.682;2023-06-10T02:08:49;14.90;99.90
21473;DHT22;10898;48.072;11.682;2023-06-10T02:10:51;14.90;99.90
21473;DHT22;10898;48.072;11.682;2023-06-10T02:12:53;14.90;99.90
21473;DHT22;10898;48.072;11.682;2023-06-10T02:14:54;14.90;99.90
21473;DHT22;10898;48.072;11.682;2023-06-10T02:16:56;14.80;99.90
21473;DHT22;10898;48.072;11.682;2023-06-10T02:18:59;14.90;99.90
21473;DHT22;10898;48.072;11.682;2023-06-10T02:21:02;14.80;99.90
21473;DHT22;10898;48.072;11.682;2023-06-10T02:23:03;14.80;99.90
21473;DHT22;10898;48.072;11.682;2023-06-10T02:25:05;14.80;99.90
21473;DHT22;10898;48.072;11.682;2023-06-10T02:27:08;14.80;99.90
21473;DHT22;10898;48.072;11.682;2023-06-10T02:29:09;14.80;99.90
21473;DHT22;10898;48.072;11.682;2023-06-10T02:31:11;14.80;99.90
21473;DHT22;10898;48.072;11.682;2023-06-10T02:33:13;14.70;99.90
21473;DHT22;10898;48.072;11.682;2023-06-10T02:35:15;14.70;99.90
21473;DHT22;10898;48.072;11.682;2023-06-10T02:37:17;14.70;99.90
21473;DHT22;10898;48.072;11.682;2023-06-10T02:39:19;14.60;99.90
21473;DHT22;10898;48.072;11.682;2023-06-10T02:41:20;14.60;99.90
21473;DHT22;10898;48.072;11.682;2023-06-10T02:43:23;14.60;99.90
21473;DHT22;10898;48.072;11.682;2023-06-10T02:45:24;14.60;99.90
21473;DHT22;10898;48.072;11.682;2023-06-10T02:47:26;14.50;99.90
21473;DHT22;10898;48.072;11.682;2023-06-10T02:49:28;14.50;99.90
21473;DHT22;10898;48.072;11.682;2023-06-10T02:51:30;14.50;99.90
21473;DHT22;10898;48.072;11.682;2023-06-10T02:53:32;14.50;99.90
21473;DHT22;10898;48.072;11.682;2023-06-10T02:55:33;14.50;99.90
21473;DHT22;10898;48.072;11.682;2023-06-10T02:57:36;14.50;99.90
21473;DHT22;10898;48.072;11.682;2023-06-10T02:59:38;14.40;99.90
21473;DHT22;10898;48.072;11.682;2023-06-10T03:01:40;14.50;99.90
21473;DHT22;10898;48.072;11.682;2023-06-10T03:03:42;14.40;99.90
21473;DHT22;10898;48.072;11.682;2023-06-10T03:05:44;14.40;99.90
21473;DHT22;10898;48.072;11.682;2023-06-10T03:07:46;14.40;99.90
21473;DHT22;10898;48.072;11.682;2023-06-10T03:09:49;14.40;99.90
21473;DHT22;10898;48.072;11.682;2023-06-10T03:11:51;14.40;99.90
21473;DHT22;10898;48.072;11.682;2023-06-10T03:13:53;14.30;99.90
21473;DHT22;10898;48.072;11.682;2023-06-10T03:15:55;14.30;99.90
21473;DHT22;10898;48.072;11.682;2023-06-10T03:17:57;14.30;99.90
21473;DHT22;10898;48.072;11.682;2023-06-10T03:19:58;14.30;99.90
21473;DHT22;10898;48.072;11.682;2023-06-10T03:22:07;14.20;99.90
21473;DHT22;10898;48.072;11.682;2023-06-10T03:24:10;14.20;99.90
21473;DHT22;10898;48.072;11.682;2023-06-10T03:26:12;14.20;99.90
21473;DHT22;10898;48.072;11.682;2023-06-10T03:28:15;14.20;99.90
21473;DHT22;10898;48.072;11.682;2023-06-10T03:30:17;14.20;99.90
21473;DHT22;10898;48.072;11.682;2023-06-10T03:32:19;14.20;99.90
21473;DHT22;10898;48.072;11.682;2023-06-10T03:34:22;14.20;99.90
21473;DHT22;10898;48.072;11.682;2023-06-10T03:36:25;14.20;99.90
21473;DHT22;10898;48.072;11.682;2023-06-10T03:38:30;14.20;99.90
21473;DHT22;10898;48.072;11.682;2023-06-10T03:40:32;14.10;99.90
21473;DHT22;10898;48.072;11.682;2023-06-10T03:42:34;14.10;99.90
21473;DHT22;10898;48.072;11.682;2023-06-10T03:44:36;14.20;99.90
21473;DHT22;10898;48.072;11.682;2023-06-10T03:46:38;14.10;99.90
21473;DHT22;10898;48.072;11.682;2023-06-10T03:48:39;14.10;99.90
21473;DHT22;10898;48.072;11.682;2023-06-10T03:50:41;14.10;99.90
21473;DHT22;10898;48.072;11.682;2023-06-10T03:52:43;14.10;99.90
21473;DHT22;10898;48.072;11.682;2023-06-10T03:54:45;14.10;99.90
21473;DHT22;10898;48.072;11.682;2023-06-10T03:56:47;14.10;99.90
21473;DHT22;10898;48.072;11.682;2023-06-10T03:58:52;14.10;99.90
21473;DHT22;10898;48.072;11.682;2023-06-10T04:00:53;14.10;99.90
21473;DHT22;10898;48.072;11.682;2023-06-10T04:02:56;14.10;99.90
21473;DHT22;10898;48.072;11.682;2023-06-10T04:04:59;14.10;99.90
21473;DHT22;10898;48.072;11.682;2023-06-10T04:07:01;14.10;99.90
21473;DHT22;10898;48.072;11.682;2023-06-10T04:09:04;14.20;99.90
21473;DHT22;10898;48.072;11.682;2023-06-10T04:11:06;14.20;99.90
21473;DHT22;10898;48.072;11.682;2023-06-10T04:13:08;14.20;99.90
21473;DHT22;10898;48.072;11.682;2023-06-10T04:15:11;14.20;99.90
21473;DHT22;10898;48.072;11.682;2023-06-10T04:17:14;14.20;99.90
21473;DHT22;10898;48.072;11.682;2023-06-10T04:19:16;14.30;99.90
21473;DHT22;10898;48.072;11.682;2023-06-10T04:21:18;14.30;99.90
21473;DHT22;10898;48.072;11.682;2023-06-10T04:23:23;14.30;99.90
21473;DHT22;10898;48.072;11.682;2023-06-10T04:25:25;14.30;99.90
21473;DHT22;10898;48.072;11.682;2023-06-10T04:27:27;14.40;99.90
21473;DHT22;10898;48.072;11.682;2023-06-10T04:29:29;14.40;99.90
21473;DHT22;10898;48.072;11.682;2023-06-10T04:31:31;14.50;99.90
21473;DHT22;10898;48.072;11.682;2023-06-10T04:33:33;14.50;99.90
21473;DHT22;10898;48.072;11.682;2023-06-10T04:35:35;14.50;99.90
21473;DHT22;10898;48.072;11.682;2023-06-10T04:37:37;14.50;99.90
21473;DHT22;10898;48.072;11.682;2023-06-10T04:39:39;14.60;99.90
21473;DHT22;10898;48.072;11.682;2023-06-10T04:41:40;14.60;99.90
21473;DHT22;10898;48.072;11.682;2023-06-10T04:43:42;14.70;99.90
21473;DHT22;10898;48.072;11.682;2023-06-10T04:45:44;14.70;99.90
21473;DHT22;10898;48.072;11.682;2023-06-10T04:47:48;14.70;99.90
21473;DHT22;10898;48.072;11.682;2023-06-10T04:49:50;14.80;99.90
21473;DHT22;10898;48.072;11.682;2023-06-10T04:51:53;14.80;99.90
21473;DHT22;10898;48.072;11.682;2023-06-10T04:53:54;14.90;99.90
21473;DHT22;10898;48.072;11.682;2023-06-10T04:55:56;15.00;99.90
21473;DHT22;10898;48.072;11.682;2023-06-10T04:57:59;15.00;99.90
21473;DHT22;10898;48.072;11.682;2023-06-10T05:00:01;15.10;99.90
21473;DHT22;10898;48.072;11.682;2023-06-10T05:02:03;15.10;99.90
21473;DHT22;10898;48.072;11.682;2023-06-10T05:04:05;15.20;99.90
21473;DHT22;10898;48.072;11.682;2023-06-10T05:06:06;15.20;99.90
21473;DHT22;10898;48.072;11.682;2023-06-10T05:08:08;15.30;99.90
21473;DHT22;10898;48.072;11.682;2023-06-10T05:10:10;15.30;99.90
21473;DHT22;10898;48.072;11.682;2023-06-10T05:12:13;15.40;99.90
21473;DHT22;10898;48.072;11.682;2023-06-10T05:14:15;15.40;99.90
21473;DHT22;10898;48.072;11.682;2023-06-10T05:16:20;15.50;99.90
21473;DHT22;10898;48.072;11.682;2023-06-10T05:18:22;15.50;99.90
21473;DHT22;10898;48.072;11.682;2023-06-10T05:20:25;15.60;99.90
21473;DHT22;10898;48.072;11.682;2023-06-10T05:22:27;15.60;99.90
21473;DHT22;10898;48.072;11.682;2023-06-10T05:24:29;15.70;99.90
21473;DHT22;10898;48.072;11.682;2023-06-10T05:26:30;15.80;99.90
21473;DHT22;10898;48.072;11.682;2023-06-10T05:28:38;15.80;99.90
21473;DHT22;10898;48.072;11.682;2023-06-10T05:30:40;15.90;99.90
21473;DHT22;10898;48.072;11.682;2023-06-10T05:32:42;15.90;99.90
21473;DHT22;10898;48.072;11.682;2023-06-10T05:34:43;16.00;99.90
21473;DHT22;10898;48.072;11.682;2023-06-10T05:36:45;16.10;99.90
21473;DHT22;10898;48.072;11.682;2023-06-10T05:38:47;16.10;99.90
21473;DHT22;10898;48.072;11.682;2023-06-10T05:40:49;16.20;99.90
21473;DHT22;10898;48.072;11.682;2023-06-10T05:42:50;16.30;99.90
21473;DHT22;10898;48.072;11.682;2023-06-10T05:44:52;16.40;99.90
21473;DHT22;10898;48.072;11.682;2023-06-10T05:46:54;16.40;99.90
21473;DHT22;10898;48.072;11.682;2023-06-10T05:48:55;16.50;99.90
21473;DHT22;10898;48.072;11.682;2023-06-10T05:50:57;16.60;99.90
21473;DHT22;10898;48.072;11.682;2023-06-10T05:52:59;16.60;99.90
21473;DHT22;10898;48.072;11.682;2023-06-10T05:55:01;16.70;99.90
21473;DHT22;10898;48.072;11.682;2023-06-10T05:57:03;16.80;99.90
21473;DHT22;10898;48.072;11.682;2023-06-10T05:59:05;16.80;99.90
21473;DHT22;10898;48.072;11.682;2023-06-10T06:01:07;16.90;99.90
21473;DHT22;10898;48.072;11.682;2023-06-10T06:03:09;17.00;99.90
21473;DHT22;10898;48.072;11.682;2023-06-10T06:05:11;17.00;99.90
21473;DHT22;10898;48.072;11.682;2023-06-10T06:07:13;17.10;99.90
21473;DHT22;10898;48.072;11.682;2023-06-10T06:09:15;17.20;99.90
21473;DHT22;10898;48.072;11.682;2023-06-10T06:11:17;17.20;99.90
21473;DHT22;10898;48.072;11.682;2023-06-10T06:13:18;17.30;99.90
21473;DHT22;10898;48.072;11.682;2023-06-10T06:15:20;17.40;99.90
21473;DHT22;10898;48.072;11.682;2023-06-10T06:17:22;17.40;99.90
21473;DHT22;10898;48.072;11.682;2023-06-10T06:19:23;17.50;99.90
21473;DHT22;10898;48.072;11.682;2023-06-10T06:21:25;17.60;99.90
21473;DHT22;10898;48.072;11.682;2023-06-10T06:23:27;17.60;99.90
21473;DHT22;10898;48.072;11.682;2023-06-10T06:25:29;17.70;99.90
21473;DHT22;10898;48.072;11.682;2023-06-10T06:27:31;17.70;99.90
21473;DHT22;10898;48.072;11.682;2023-06-10T06:29:32;17.80;99.90
21473;DHT22;10898;48.072;11.682;2023-06-10T06:31:35;17.80;99.90
21473;DHT22;10898;48.072;11.682;2023-06-10T06:33:37;18.00;99.90
21473;DHT22;10898;48.072;11.682;2023-06-10T06:35:38;18.00;99.90
21473;DHT22;10898;48.072;11.682;2023-06-10T06:37:41;18.10;99.90
21473;DHT22;10898;48.072;11.682;2023-06-10T06:39:43;18.20;99.90
21473;DHT22;10898;48.072;11.682;2023-06-10T06:41:45;18.30;99.90
21473;DHT22;10898;48.072;11.682;2023-06-10T06:43:46;18.30;99.90
21473;DHT22;10898;48.072;11.682;2023-06-10T06:45:48;18.40;99.90
21473;DHT22;10898;48.072;11.682;2023-06-10T06:47:50;18.50;99.90
21473;DHT22;10898;48.072;11.682;2023-06-10T06:49:52;18.60;99.90
21473;DHT22;10898;48.072;11.682;2023-06-10T06:51:54;18.70;99.90
21473;DHT22;10898;48.072;11.682;2023-06-10T06:53:56;18.70;99.90
21473;DHT22;10898;48.072;11.682;2023-06-10T06:56:00;18.80;99.90
21473;DHT22;10898;48.072;11.682;2023-06-10T06:58:02;18.90;99.90
21473;DHT22;10898;48.072;11.682;2023-06-10T07:00:06;18.90;99.90
21473;DHT22;10898;48.072;11.682;2023-06-10T07:02:07;19.00;99.90
21473;DHT22;10898;48.072;11.682;2023-06-10T07:04:09;19.10;99.90
21473;DHT22;10898;48.072;11.682;2023-06-10T07:06:12;19.10;99.90
21473;DHT22;10898;48.072;11.682;2023-06-10T07:08:13;19.20;99.90
21473;DHT22;10898;48.072;11.682;2023-06-10T07:10:15;19.30;99.90
21473;DHT22;10898;48.072;11.682;2023-06-10T07:12:17;19.30;99.90
21473;DHT22;10898;48.072;11.682;2023-06-10T07:14:20;19.40;99.90
21473;DHT22;10898;48.072;11.682;2023-06-10T07:16:21;19.50;99.90
21473;DHT22;10898;48.072;11.682;2023-06-10T07:18:23;19.60;99.90
21473;DHT22;10898;48.072;11.682;2023-06-10T07:20:25;19.60;99.90
21473;DHT22;10898;48.072;11.682;2023-06-10T07:22:27;19.70;99.90
21473;DHT22;10898;48.072;11.682;2023-06-10T07:24:29;19.80;99.90
21473;DHT22;10898;48.072;11.682;2023-06-10T07:26:30;19.80;99.90
21473;DHT22;10898;48.072;11.682;2023-06-10T07:28:32;19.90;99.90
21473;DHT22;10898;48.072;11.682;2023-06-10T07:30:34;20.00;99.90
21473;DHT22;10898;48.072;11.682;2023-06-10T07:32:36;20.10;99.90
21473;DHT22;10898;48.072;11.682;2023-06-10T07:34:37;20.20;99.90
21473;DHT22;10898;48.072;11.682;2023-06-10T07:36:39;20.30;99.90
21473;DHT22;10898;48.072;11.682;2023-06-10T07:38:41;20.30;99.90
21473;DHT22;10898;48.072;11.682;2023-06-10T07:40:43;20.40;99.90
21473;DHT22;10898;48.072;11.682;2023-06-10T07:42:45;20.50;99.90
21473;DHT22;10898;48.072;11.682;2023-06-10T07:44:47;20.50;99.90
21473;DHT22;10898;48.072;11.682;2023-06-10T07:46:49;20.60;99.90
21473;DHT22;10898;48.072;11.682;2023-06-10T07:48:51;20.70;99.90
21473;DHT22;10898;48.072;11.682;2023-06-10T07:50:52;20.80;99.90
21473;DHT22;10898;48.072;11.682;2023-06-10T07:52:54;20.80;99.90
21473;DHT22;10898;48.072;11.682;2023-06-10T07:54:56;20.90;99.90
21473;DHT22;10898;48.072;11.682;2023-06-10T07:56:58;21.00;99.90
21473;DHT22;10898;48.072;11.682;2023-06-10T07:58:59;21.10;99.90
21473;DHT22;10898;48.072;11.682;2023-06-10T08:01:01;21.10;99.90
21473;DHT22;10898;48.072;11.682;2023-06-10T08:03:03;21.20;99.90
21473;DHT22;10898;48.072;11.682;2023-06-10T08:05:05;21.20;99.90
21473;DHT22;10898;48.072;11.682;2023-06-10T08:07:06;21.30;99.90
21473;DHT22;10898;48.072;11.682;2023-06-10T08:09:08;21.40;99.90
21473;DHT22;10898;48.072;11.682;2023-06-10T08:11:10;21.50;99.90
21473;DHT22;10898;48.072;11.682;2023-06-10T08:13:12;21.60;99.90
21473;DHT22;10898;48.072;11.682;2023-06-10T08:15:14;21.60;99.90
21473;DHT22;10898;48.072;11.682;2023-06-10T08:17:16;21.70;99.90
21473;DHT22;10898;48.072;11.682;2023-06-10T08:19:18;21.80;99.90
21473;DHT22;10898;48.072;11.682;2023-06-10T08:21:19;21.80;99.90
21473;DHT22;10898;48.072;11.682;2023-06-10T08:23:21;22.00;99.90
21473;DHT22;10898;48.072;11.682;2023-06-10T08:25:23;22.10;99.90
21473;DHT22;10898;48.072;11.682;2023-06-10T08:27:25;22.20;99.90
21473;DHT22;10898;48.072;11.682;2023-06-10T08:29:26;22.20;99.90
21473;DHT22;10898;48.072;11.682;2023-06-10T08:31:28;22.30;99.90
21473;DHT22;10898;48.072;11.682;2023-06-10T08:33:30;22.40;99.90
21473;DHT22;10898;48.072;11.682;2023-06-10T08:35:32;22.40;99.90
21473;DHT22;10898;48.072;11.682;2023-06-10T08:37:33;22.50;99.90
21473;DHT22;10898;48.072;11.682;2023-06-10T08:39:35;22.50;99.90
21473;DHT22;10898;48.072;11.682;2023-06-10T08:41:43;22.60;99.90
21473;DHT22;10898;48.072;11.682;2023-06-10T08:43:46;22.70;99.90
21473;DHT22;10898;48.072;11.682;2023-06-10T08:45:49;22.70;99.90
21473;DHT22;10898;48.072;11.682;2023-06-10T08:47:52;22.80;99.90
21473;DHT22;10898;48.072;11.682;2023-06-10T08:49:55;22.90;99.90
21473;DHT22;10898;48.072;11.682;2023-06-10T08:52:00;23.00;99.90
21473;DHT22;10898;48.072;11.682;2023-06-10T08:54:10;23.10;99.90
21473;DHT22;10898;48.072;11.682;2023-06-10T08:56:13;23.20;99.90
21473;DHT22;10898;48.072;11.682;2023-06-10T08:58:15;23.20;99.90
21473;DHT22;10898;48.072;11.682;2023-06-10T09:00:16;23.20;99.90
21473;DHT22;10898;48.072;11.682;2023-06-10T09:02:18;23.20;99.90
21473;DHT22;10898;48.072;11.682;2023-06-10T09:04:23;23.20;99.90
21473;DHT22;10898;48.072;11.682;2023-06-10T09:06:25;23.20;99.90
21473;DHT22;10898;48.072;11.682;2023-06-10T09:08:27;23.20;99.90
21473;DHT22;10898;48.072;11.682;2023-06-10T09:10:29;23.20;99.90
21473;DHT22;10898;48.072;11.682;2023-06-10T09:12:30;23.10;99.90
21473;DHT22;10898;48.072;11.682;2023-06-10T09:14:32;23.10;99.90
21473;DHT22;10898;48.072;11.682;2023-06-10T09:16:34;23.10;99.90
21473;DHT22;10898;48.072;11.682;2023-06-10T09:18:36;23.00;99.60
21473;DHT22;10898;48.072;11.682;2023-06-10T09:20:38;23.00;99.60
21473;DHT22;10898;48.072;11.682;2023-06-10T09:22:41;23.00;99.90
21473;DHT22;10898;48.072;11.682;2023-06-10T09:24:43;23.10;99.90
21473;DHT22;10898;48.072;11.682;2023-06-10T09:26:45;23.20;99.90
21473;DHT22;10898;48.072;11.682;2023-06-10T09:28:47;23.40;99.90
21473;DHT22;10898;48.072;11.682;2023-06-10T09:30:49;23.50;99.90
21473;DHT22;10898;48.072;11.682;2023-06-10T09:32:52;23.60;99.90
21473;DHT22;10898;48.072;11.682;2023-06-10T09:34:54;23.70;99.90
21473;DHT22;10898;48.072;11.682;2023-06-10T09:36:56;23.80;99.90
21473;DHT22;10898;48.072;11.682;2023-06-10T09:38:57;23.90;98.60
21473;DHT22;10898;48.072;11.682;2023-06-10T09:40:59;23.90;99.20
21473;DHT22;10898;48.072;11.682;2023-06-10T09:43:02;23.90;98.90
21473;DHT22;10898;48.072;11.682;2023-06-10T09:45:05;24.00;99.60
21473;DHT22;10898;48.072;11.682;2023-06-10T09:47:07;24.10;99.00
21473;DHT22;10898;48.072;11.682;2023-06-10T09:49:08;24.20;98.90
21473;DHT22;10898;48.072;11.682;2023-06-10T09:51:13;24.30;98.60
21473;DHT22;10898;48.072;11.682;2023-06-10T09:53:16;24.30;98.60
21473;DHT22;10898;48.072;11.682;2023-06-10T09:55:18;24.40;98.00
21473;DHT22;10898;48.072;11.682;2023-06-10T09:57:20;24.30;96.90
21473;DHT22;10898;48.072;11.682;2023-06-10T09:59:29;24.30;97.80
21473;DHT22;10898;48.072;11.682;2023-06-10T10:01:34;24.30;98.30
21473;DHT22;10898;48.072;11.682;2023-06-10T10:03:51;24.40;97.80
21473;DHT22;10898;48.072;11.682;2023-06-10T10:05:57;24.30;97.20
21473;DHT22;10898;48.072;11.682;2023-06-10T10:07:59;24.20;97.30
21473;DHT22;10898;48.072;11.682;2023-06-10T10:10:01;24.10;96.60
21473;DHT22;10898;48.072;11.682;2023-06-10T10:12:05;24.00;97.30
21473;DHT22;10898;48.072;11.682;2023-06-10T10:14:10;24.00;97.50
21473;DHT22;10898;48.072;11.682;2023-06-10T10:16:14;23.90;97.00
21473;DHT22;10898;48.072;11.682;2023-06-10T10:18:17;23.80;96.70
21473;DHT22;10898;48.072;11.682;2023-06-10T10:20:22;23.70;97.40
21473;DHT22;10898;48.072;11.682;2023-06-10T10:22:27;23.70;99.20
21473;DHT22;10898;48.072;11.682;2023-06-10T10:24:32;23.80;98.10
21473;DHT22;10898;48.072;11.682;2023-06-10T10:26:35;23.80;97.40
21473;DHT22;10898;48.072;11.682;2023-06-10T10:28:41;23.80;97.00
21473;DHT22;10898;48.072;11.682;2023-06-10T10:30:47;23.80;97.40
21473;DHT22;10898;48.072;11.682;2023-06-10T10:35:08;23.70;97.20
21473;DHT22;10898;48.072;11.682;2023-06-10T10:37:10;23.70;96.60
21473;DHT22;10898;48.072;11.682;2023-06-10T10:39:12;23.60;97.10
21473;DHT22;10898;48.072;11.682;2023-06-10T10:41:14;23.60;96.90
21473;DHT22;10898;48.072;11.682;2023-06-10T10:43:16;23.60;97.10
21473;DHT22;10898;48.072;11.682;2023-06-10T10:45:18;23.60;97.80
21473;DHT22;10898;48.072;11.682;2023-06-10T10:47:21;23.70;97.70
21473;DHT22;10898;48.072;11.682;2023-06-10T10:49:23;23.70;96.90
21473;DHT22;10898;48.072;11.682;2023-06-10T10:51:26;23.80;96.70
21473;DHT22;10898;48.072;11.682;2023-06-10T10:53:36;23.80;96.40
21473;DHT22;10898;48.072;11.682;2023-06-10T10:55:38;23.80;97.00
21473;DHT22;10898;48.072;11.682;2023-06-10T10:57:41;23.80;96.40
21473;DHT22;10898;48.072;11.682;2023-06-10T11:01:57;24.10;97.50
21473;DHT22;10898;48.072;11.682;2023-06-10T11:03:59;24.10;96.20
21473;DHT22;10898;48.072;11.682;2023-06-10T11:06:02;24.20;96.40
21473;DHT22;10898;48.072;11.682;2023-06-10T11:08:13;24.20;96.00
21473;DHT22;10898;48.072;11.682;2023-06-10T11:10:15;24.20;95.00
21473;DHT22;10898;48.072;11.682;2023-06-10T11:12:21;24.20;95.60
21473;DHT22;10898;48.072;11.682;2023-06-10T11:14:27;24.30;96.10
21473;DHT22;10898;48.072;11.682;2023-06-10T11:16:38;24.40;95.50
21473;DHT22;10898;48.072;11.682;2023-06-10T11:18:40;24.40;95.00
21473;DHT22;10898;48.072;11.682;2023-06-10T11:22:59;24.60;95.10
21473;DHT22;10898;48.072;11.682;2023-06-10T11:25:02;24.60;94.90
21473;DHT22;10898;48.072;11.682;2023-06-10T11:29:21;24.70;93.30
21473;DHT22;10898;48.072;11.682;2023-06-10T11:31:23;24.60;92.70
21473;DHT22;10898;48.072;11.682;2023-06-10T11:33:25;24.50;92.00
21473;DHT22;10898;48.072;11.682;2023-06-10T11:35:27;24.40;91.70
21473;DHT22;10898;48.072;11.682;2023-06-10T11:37:29;24.40;92.20
21473;DHT22;10898;48.072;11.682;2023-06-10T11:39:31;24.30;91.70
21473;DHT22;10898;48.072;11.682;2023-06-10T11:41:34;24.40;93.20
21473;DHT22;10898;48.072;11.682;2023-06-10T11:43:36;24.50;93.90
21473;DHT22;10898;48.072;11.682;2023-06-10T11:45:40;24.60;93.20
21473;DHT22;10898;48.072;11.682;2023-06-10T11:47:55;24.70;93.10
21473;DHT22;10898;48.072;11.682;2023-06-10T11:49:57;24.90;93.10
21473;DHT22;10898;48.072;11.682;2023-06-10T11:51:59;25.00;91.80
21473;DHT22;10898;48.072;11.682;2023-06-10T11:54:01;25.10;91.50
21473;DHT22;10898;48.072;11.682;2023-06-10T11:56:02;25.20;91.60
21473;DHT22;10898;48.072;11.682;2023-06-10T11:58:04;25.40;91.30
21473;DHT22;10898;48.072;11.682;2023-06-10T12:00:06;25.50;91.30
21473;DHT22;10898;48.072;11.682;2023-06-10T12:02:14;25.60;90.10
21473;DHT22;10898;48.072;11.682;2023-06-10T12:04:16;25.70;89.80
21473;DHT22;10898;48.072;11.682;2023-06-10T12:06:20;25.70;89.80
21473;DHT22;10898;48.072;11.682;2023-06-10T12:08:22;25.80;87.00
21473;DHT22;10898;48.072;11.682;2023-06-10T12:10:24;25.80;86.80
21473;DHT22;10898;48.072;11.682;2023-06-10T12:12:28;25.90;86.60
21473;DHT22;10898;48.072;11.682;2023-06-10T12:16:50;26.00;86.40
21473;DHT22;10898;48.072;11.682;2023-06-10T12:19:00;26.10;84.50
21473;DHT22;10898;48.072;11.682;2023-06-10T12:21:02;26.20;85.20
21473;DHT22;10898;48.072;11.682;2023-06-10T12:23:09;26.20;82.90
21473;DHT22;10898;48.072;11.682;2023-06-10T12:25:11;26.30;85.10
21473;DHT22;10898;48.072;11.682;2023-06-10T12:27:13;26.30;82.40
21473;DHT22;10898;48.072;11.682;2023-06-10T12:29:24;26.30;80.50
21473;DHT22;10898;48.072;11.682;2023-06-10T12:31:26;26.20;79.90
21473;DHT22;10898;48.072;11.682;2023-06-10T12:33:28;26.20;81.30
21473;DHT22;10898;48.072;11.682;2023-06-10T12:35:29;26.30;81.60
21473;DHT22;10898;48.072;11.682;2023-06-10T12:37:31;26.30;79.60
21473;DHT22;10898;48.072;11.682;2023-06-10T12:39:36;26.40;81.20
21473;DHT22;10898;48.072;11.682;2023-06-10T12:41:38;26.50;80.90
21473;DHT22;10898;48.072;11.682;2023-06-10T12:43:40;26.50;77.40
21473;DHT22;10898;48.072;11.682;2023-06-10T12:45:42;26.50;78.60
21473;DHT22;10898;48.072;11.682;2023-06-10T12:47:47;26.50;81.30
21473;DHT22;10898;48.072;11.682;2023-06-10T12:49:48;26.60;82.70
21473;DHT22;10898;48.072;11.682;2023-06-10T12:51:52;26.60;81.30
21473;DHT22;10898;48.072;11.682;2023-06-10T12:53:53;26.60;82.20
21473;DHT22;10898;48.072;11.682;2023-06-10T12:55:55;26.70;81.80